createdAt,value
2019-01-28T00:01:36.763Z,4.30
2019-01-28T00:04:03.299Z,4.30
2019-01-28T00:06:29.495Z,4.20
2019-01-28T00:09:15.528Z,4.20
2019-01-28T00:11:41.746Z,4.10
2019-01-28T00:14:08.165Z,4.20
2019-01-28T00:16:34.456Z,4.20
2019-01-28T00:19:00.695Z,4.20
2019-01-28T00:21:26.878Z,4.10
2019-01-28T00:23:53.135Z,4.10
2019-01-28T00:26:19.346Z,4.10
2019-01-28T00:28:45.581Z,4.10
2019-01-28T00:31:11.645Z,4.00
2019-01-28T00:33:37.758Z,4.00
2019-01-28T00:36:03.986Z,4.00
2019-01-28T00:38:30.282Z,3.80
2019-01-28T00:40:56.392Z,3.80
2019-01-28T00:43:22.496Z,3.70
2019-01-28T00:45:48.782Z,3.60
2019-01-28T00:48:16.566Z,3.60
2019-01-28T00:50:42.906Z,3.60
2019-01-28T00:53:09.002Z,3.50
2019-01-28T00:55:35.242Z,3.40
2019-01-28T00:58:01.291Z,3.40
2019-01-28T01:00:27.635Z,3.30
2019-01-28T01:02:54.054Z,3.30
2019-01-28T01:05:20.353Z,3.20
2019-01-28T01:07:46.590Z,3.20
2019-01-28T01:10:13.098Z,3.20
2019-01-28T01:12:39.253Z,3.20
2019-01-28T01:15:12.309Z,3.20
2019-01-28T01:17:38.840Z,3.00
2019-01-28T01:20:08.174Z,3.10
2019-01-28T01:22:34.362Z,3.00
2019-01-28T01:25:00.488Z,3.00
2019-01-28T01:27:26.626Z,3.00
2019-01-28T01:29:52.752Z,3.00
2019-01-28T01:32:18.882Z,2.90
2019-01-28T01:34:45.102Z,3.00
2019-01-28T01:37:11.230Z,3.00
2019-01-28T01:39:37.326Z,3.00
2019-01-28T01:42:03.540Z,2.90
2019-01-28T01:44:29.662Z,3.00
2019-01-28T01:46:55.883Z,2.90
2019-01-28T01:49:22.055Z,2.90
2019-01-28T01:51:48.288Z,2.70
2019-01-28T01:54:14.529Z,2.60
2019-01-28T01:56:40.650Z,2.60
2019-01-28T01:59:06.871Z,2.60
2019-01-28T02:01:33.080Z,2.70
2019-01-28T02:03:59.200Z,2.70
2019-01-28T02:06:25.306Z,2.60
2019-01-28T02:08:51.403Z,2.50
2019-01-28T02:11:17.539Z,2.50
2019-01-28T02:13:43.880Z,2.50
2019-01-28T02:16:10.056Z,2.60
2019-01-28T02:18:36.281Z,2.50
2019-01-28T02:21:02.823Z,2.60
2019-01-28T02:23:28.896Z,2.60
2019-01-28T02:25:55.145Z,2.60
2019-01-28T02:28:21.357Z,2.60
2019-01-28T02:30:47.597Z,2.60
2019-01-28T02:33:13.951Z,2.60
2019-01-28T02:35:40.169Z,2.60
2019-01-28T02:38:06.308Z,2.60
2019-01-28T02:40:32.515Z,2.60
2019-01-28T02:42:58.715Z,2.60
2019-01-28T02:45:24.852Z,2.60
2019-01-28T02:47:51.087Z,2.60
2019-01-28T02:50:17.328Z,2.60
2019-01-28T02:52:43.763Z,2.60
2019-01-28T02:55:10.464Z,2.60
2019-01-28T02:57:36.688Z,2.60
2019-01-28T03:00:06.699Z,2.50
2019-01-28T03:02:32.835Z,2.60
2019-01-28T03:04:59.051Z,2.70
2019-01-28T03:07:25.177Z,2.70
2019-01-28T03:09:51.307Z,2.70
2019-01-28T03:12:17.487Z,2.70
2019-01-28T03:14:43.635Z,2.70
2019-01-28T03:17:09.727Z,2.60
2019-01-28T03:19:35.929Z,2.70
2019-01-28T03:22:02.239Z,2.80
2019-01-28T03:24:28.435Z,2.80
2019-01-28T03:26:54.561Z,2.90
2019-01-28T03:29:20.721Z,2.90
2019-01-28T03:31:46.918Z,2.80
2019-01-28T03:34:13.036Z,2.70
2019-01-28T03:36:39.219Z,2.80
2019-01-28T03:39:06.717Z,2.70
2019-01-28T03:41:32.941Z,2.70
2019-01-28T03:43:59.143Z,2.80
2019-01-28T03:46:25.240Z,2.80
2019-01-28T03:48:51.462Z,2.70
2019-01-28T03:51:17.705Z,2.70
2019-01-28T03:53:44.170Z,2.80
2019-01-28T03:56:10.279Z,2.70
2019-01-28T03:58:36.408Z,2.70
2019-01-28T04:01:03.853Z,2.60
2019-01-28T04:03:29.989Z,2.60
2019-01-28T04:05:56.181Z,2.50
2019-01-28T04:08:22.311Z,2.50
2019-01-28T04:10:48.399Z,2.50
2019-01-28T04:13:27.931Z,2.40
2019-01-28T04:15:54.241Z,2.40
2019-01-28T04:18:20.381Z,2.40
2019-01-28T04:20:46.590Z,2.40
2019-01-28T04:23:12.792Z,2.40
2019-01-28T04:25:39.014Z,2.50
2019-01-28T04:28:05.215Z,2.40
2019-01-28T04:30:31.280Z,2.50
2019-01-28T04:32:57.397Z,2.50
2019-01-28T04:35:23.794Z,2.50
2019-01-28T04:37:49.892Z,2.40
2019-01-28T04:40:16.166Z,2.40
2019-01-28T04:42:42.429Z,2.30
2019-01-28T04:45:11.854Z,2.30
2019-01-28T04:47:37.935Z,2.40
2019-01-28T04:50:07.545Z,2.40
2019-01-28T04:52:33.674Z,2.30
2019-01-28T04:54:59.924Z,2.30
2019-01-28T04:57:26.024Z,2.30
2019-01-28T04:59:52.156Z,2.30
2019-01-28T05:02:18.252Z,2.30
2019-01-28T05:04:44.370Z,2.30
2019-01-28T05:07:10.597Z,2.30
2019-01-28T05:09:36.713Z,2.30
2019-01-28T05:12:03.367Z,2.30
2019-01-28T05:14:29.594Z,2.30
2019-01-28T05:16:55.749Z,2.30
2019-01-28T05:19:21.971Z,2.40
2019-01-28T05:21:48.066Z,2.30
2019-01-28T05:24:14.138Z,2.30
2019-01-28T05:26:40.277Z,2.30
2019-01-28T05:29:06.506Z,2.30
2019-01-28T05:31:32.954Z,2.30
2019-01-28T05:33:59.060Z,2.30
2019-01-28T05:36:25.144Z,2.30
2019-01-28T05:38:51.252Z,2.40
2019-01-28T05:41:17.369Z,2.40
2019-01-28T05:43:43.454Z,2.30
2019-01-28T05:46:09.544Z,2.30
2019-01-28T05:48:35.686Z,2.30
2019-01-28T05:51:01.899Z,2.30
2019-01-28T05:53:28.039Z,2.30
2019-01-28T05:55:54.109Z,2.30
2019-01-28T05:58:20.214Z,2.30
2019-01-28T06:00:46.395Z,2.30
2019-01-28T06:03:12.772Z,2.30
2019-01-28T06:05:39.011Z,2.30
2019-01-28T06:08:05.496Z,2.30
2019-01-28T06:10:31.736Z,2.40
2019-01-28T06:12:58.088Z,2.40
2019-01-28T06:15:24.171Z,2.40
2019-01-28T06:17:50.381Z,2.40
2019-01-28T06:20:22.349Z,2.30
2019-01-28T06:22:48.561Z,2.40
2019-01-28T06:25:15.010Z,2.30
2019-01-28T06:27:41.392Z,2.30
2019-01-28T06:30:13.977Z,2.30
2019-01-28T06:32:40.181Z,2.30
2019-01-28T06:35:07.334Z,2.30
2019-01-28T06:37:33.579Z,2.40
2019-01-28T06:39:59.755Z,2.40
2019-01-28T06:42:25.881Z,2.40
2019-01-28T06:44:51.983Z,2.40
2019-01-28T06:47:18.277Z,2.40
2019-01-28T06:49:44.395Z,2.40
2019-01-28T06:52:10.504Z,2.40
2019-01-28T06:54:36.642Z,2.40
2019-01-28T06:57:03.001Z,2.40
2019-01-28T06:59:29.180Z,2.40
2019-01-28T07:01:55.297Z,2.40
2019-01-28T07:04:21.409Z,2.40
2019-01-28T07:06:47.832Z,2.40
2019-01-28T07:09:13.953Z,2.40
2019-01-28T07:11:40.074Z,2.40
2019-01-28T07:14:06.146Z,2.40
2019-01-28T07:16:32.491Z,2.40
2019-01-28T07:18:58.645Z,2.50
2019-01-28T07:21:24.826Z,2.40
2019-01-28T07:23:50.968Z,2.40
2019-01-28T07:26:17.189Z,2.40
2019-01-28T07:28:43.286Z,2.40
2019-01-28T07:31:09.374Z,2.30
2019-01-28T07:33:35.479Z,2.30
2019-01-28T07:36:01.598Z,2.30
2019-01-28T07:38:27.840Z,2.30
2019-01-28T07:40:54.035Z,2.30
2019-01-28T07:43:20.286Z,2.30
2019-01-28T07:45:46.613Z,2.30
2019-01-28T07:48:12.860Z,2.20
2019-01-28T07:50:39.034Z,2.30
2019-01-28T07:53:05.232Z,2.20
2019-01-28T07:55:31.434Z,2.20
2019-01-28T07:57:57.783Z,2.30
2019-01-28T08:00:26.271Z,2.30
2019-01-28T08:02:52.518Z,2.30
2019-01-28T08:05:19.062Z,2.40
2019-01-28T08:07:45.635Z,2.40
2019-01-28T08:10:14.544Z,2.30
2019-01-28T08:12:40.860Z,2.30
2019-01-28T08:15:10.361Z,2.30
2019-01-28T08:17:36.694Z,2.30
2019-01-28T08:20:12.562Z,2.30
2019-01-28T08:22:38.781Z,2.30
2019-01-28T08:25:08.488Z,2.20
2019-01-28T08:27:35.218Z,2.30
2019-01-28T08:30:03.591Z,2.40
2019-01-28T08:32:29.759Z,2.40
2019-01-28T08:34:56.048Z,2.40
2019-01-28T08:37:22.149Z,2.40
2019-01-28T08:39:48.385Z,2.50
2019-01-28T08:42:14.578Z,2.40
2019-01-28T08:44:42.571Z,2.50
2019-01-28T08:47:08.674Z,2.50
2019-01-28T08:49:34.866Z,2.50
2019-01-28T08:52:00.998Z,2.40
2019-01-28T08:54:27.110Z,2.50
2019-01-28T08:56:53.414Z,2.60
2019-01-28T08:59:19.594Z,2.60
2019-01-28T09:01:45.718Z,2.60
2019-01-28T09:04:11.858Z,2.60
2019-01-28T09:06:38.234Z,2.60
2019-01-28T09:09:07.280Z,2.60
2019-01-28T09:11:33.678Z,2.70
2019-01-28T09:13:59.766Z,2.80
2019-01-28T09:16:26.030Z,2.80
2019-01-28T09:18:52.223Z,2.80
2019-01-28T09:21:18.454Z,2.80
2019-01-28T09:23:44.713Z,2.80
2019-01-28T09:26:11.000Z,2.80
2019-01-28T09:28:37.120Z,2.80
2019-01-28T09:31:03.618Z,2.80
2019-01-28T09:33:29.820Z,2.90
2019-01-28T09:35:56.063Z,2.90
2019-01-28T09:38:22.389Z,2.90
2019-01-28T09:40:48.619Z,2.90
2019-01-28T09:43:14.883Z,2.90
2019-01-28T09:45:42.006Z,2.90
2019-01-28T09:48:10.382Z,2.90
2019-01-28T09:50:36.738Z,2.90
2019-01-28T09:53:03.310Z,2.90
2019-01-28T09:55:29.431Z,2.90
2019-01-28T09:57:55.738Z,2.90
2019-01-28T10:00:30.733Z,2.90
2019-01-28T10:02:57.434Z,2.90
2019-01-28T10:05:23.837Z,2.80
2019-01-28T10:07:50.410Z,2.90
2019-01-28T10:10:18.231Z,2.90
2019-01-28T10:12:44.622Z,2.90
2019-01-28T10:15:17.430Z,3.10
2019-01-28T10:17:43.541Z,3.00
2019-01-28T10:20:16.787Z,3.20
2019-01-28T10:22:43.200Z,3.10
2019-01-28T10:25:09.603Z,3.20
2019-01-28T10:27:35.667Z,3.20
2019-01-28T10:30:03.617Z,3.10
2019-01-28T10:32:35.978Z,3.20
2019-01-28T10:34:57.724Z,3.30
2019-01-28T10:37:23.913Z,3.30
2019-01-28T10:39:50.037Z,3.30
2019-01-28T10:42:16.266Z,3.10
2019-01-28T10:44:42.475Z,3.70
2019-01-28T10:47:08.851Z,3.20
2019-01-28T10:49:34.961Z,3.00
2019-01-28T10:52:01.103Z,2.90
2019-01-28T10:54:27.217Z,2.90
2019-01-28T10:56:53.421Z,2.90
2019-01-28T10:59:19.642Z,2.80
2019-01-28T11:01:45.935Z,2.90
2019-01-28T11:04:12.073Z,2.90
2019-01-28T11:06:38.571Z,3.00
2019-01-28T11:09:06.133Z,3.00
2019-01-28T11:11:32.312Z,2.90
2019-01-28T11:13:58.543Z,3.00
2019-01-28T11:16:24.794Z,2.90
2019-01-28T11:18:57.581Z,3.00
2019-01-28T11:21:18.873Z,3.00
2019-01-28T11:23:45.242Z,3.00
2019-01-28T11:26:11.562Z,2.90
2019-01-28T11:28:37.741Z,2.90
2019-01-28T11:31:05.916Z,2.90
2019-01-28T11:33:32.333Z,2.90
2019-01-28T11:36:05.055Z,3.00
2019-01-28T11:38:27.027Z,3.00
2019-01-28T11:40:53.186Z,3.10
2019-01-28T11:43:19.447Z,3.00
2019-01-28T11:45:49.085Z,3.10
2019-01-28T11:48:15.368Z,3.30
2019-01-28T11:50:41.944Z,3.20
2019-01-28T11:53:08.227Z,3.30
2019-01-28T11:55:34.687Z,3.30
2019-01-28T11:58:00.967Z,3.30
2019-01-28T12:00:32.480Z,3.30
2019-01-28T12:02:58.634Z,3.30
2019-01-28T12:05:24.957Z,3.30
2019-01-28T12:07:51.780Z,3.30
2019-01-28T12:10:18.126Z,3.20
2019-01-28T12:12:44.442Z,3.30
2019-01-28T12:15:13.899Z,3.40
2019-01-28T12:17:39.996Z,3.30
2019-01-28T12:20:08.730Z,3.20
2019-01-28T12:22:34.798Z,3.10
2019-01-28T12:25:01.197Z,3.10
2019-01-28T12:27:27.334Z,3.10
2019-01-28T12:29:53.428Z,3.10
2019-01-28T12:32:19.678Z,3.10
2019-01-28T12:34:45.977Z,3.10
2019-01-28T12:37:12.137Z,3.10
2019-01-28T12:39:38.323Z,3.10
2019-01-28T12:42:05.784Z,3.10
2019-01-28T12:44:32.145Z,3.00
2019-01-28T12:46:59.010Z,3.00
2019-01-28T12:49:25.207Z,3.10
2019-01-28T12:51:51.427Z,3.10
2019-01-28T12:54:17.590Z,3.10
2019-01-28T12:56:43.733Z,2.90
2019-01-28T12:59:09.984Z,3.00
2019-01-28T13:01:36.495Z,2.90
2019-01-28T13:04:03.305Z,2.80
2019-01-28T13:06:29.526Z,2.80
2019-01-28T13:08:55.786Z,2.70
2019-01-28T13:11:22.190Z,2.60
2019-01-28T13:13:48.428Z,2.70
2019-01-28T13:16:14.690Z,2.70
2019-01-28T13:18:40.959Z,2.70
2019-01-28T13:21:07.282Z,2.70
2019-01-28T13:23:33.697Z,2.70
2019-01-28T13:25:59.864Z,2.70
2019-01-28T13:28:25.952Z,2.60
2019-01-28T13:30:52.217Z,2.60
2019-01-28T13:33:18.592Z,2.60
2019-01-28T13:35:44.842Z,2.60
2019-01-28T13:38:11.112Z,2.50
2019-01-28T13:40:37.338Z,2.50
2019-01-28T13:43:03.974Z,2.50
2019-01-28T13:45:30.209Z,2.40
2019-01-28T13:47:56.943Z,2.50
2019-01-28T13:50:24.350Z,2.40
2019-01-28T13:52:51.075Z,2.40
2019-01-28T13:55:18.658Z,2.40
2019-01-28T13:57:44.833Z,2.40
2019-01-28T14:00:15.082Z,2.40
2019-01-28T14:02:41.320Z,2.40
2019-01-28T14:05:08.833Z,2.30
2019-01-28T14:07:35.256Z,2.20
2019-01-28T14:10:03.306Z,2.20
2019-01-28T14:12:29.499Z,2.20
2019-01-28T14:14:55.610Z,2.00
2019-01-28T14:17:21.762Z,2.00
2019-01-28T14:19:48.000Z,1.90
2019-01-28T14:22:14.142Z,1.90
2019-01-28T14:24:40.218Z,1.80
2019-01-28T14:27:06.343Z,1.90
2019-01-28T14:29:32.520Z,1.80
2019-01-28T14:31:58.760Z,1.80
2019-01-28T14:34:24.974Z,1.80
2019-01-28T14:36:51.311Z,1.80
2019-01-28T14:39:17.614Z,1.80
2019-01-28T14:41:43.766Z,1.80
2019-01-28T14:44:10.050Z,1.80
2019-01-28T14:46:37.960Z,1.70
2019-01-28T14:49:04.228Z,1.80
2019-01-28T14:51:30.727Z,1.70
2019-01-28T14:53:57.227Z,1.80
2019-01-28T14:56:23.396Z,1.80
2019-01-28T14:58:49.744Z,1.70
2019-01-28T15:01:15.940Z,1.80
2019-01-28T15:03:42.074Z,1.80
2019-01-28T15:06:08.495Z,1.70
2019-01-28T15:08:34.736Z,1.80
2019-01-28T15:11:00.943Z,1.70
2019-01-28T15:13:27.424Z,1.70
2019-01-28T15:15:53.643Z,1.70
2019-01-28T15:18:19.817Z,1.70
2019-01-28T15:20:45.977Z,1.70
2019-01-28T15:23:12.275Z,1.70
2019-01-28T15:25:38.865Z,1.70
2019-01-28T15:28:05.467Z,1.60
2019-01-28T15:30:32.438Z,1.60
2019-01-28T15:32:59.163Z,1.70
2019-01-28T15:35:25.432Z,1.70
2019-01-28T15:37:52.214Z,1.70
2019-01-28T15:40:21.970Z,1.70
2019-01-28T15:42:48.329Z,1.70
2019-01-28T15:45:23.303Z,1.60
2019-01-28T15:47:49.596Z,1.60
2019-01-28T15:50:17.041Z,1.70
2019-01-28T15:52:43.261Z,1.60
2019-01-28T15:55:21.731Z,1.70
2019-01-28T15:57:47.853Z,1.70
2019-01-28T16:00:17.701Z,1.80
2019-01-28T16:02:44.434Z,1.80
2019-01-28T16:05:10.674Z,1.80
2019-01-28T16:07:36.796Z,1.80
2019-01-28T16:10:06.998Z,1.90
2019-01-28T16:12:33.590Z,1.90
2019-01-28T16:14:59.741Z,2.00
2019-01-28T16:17:26.330Z,1.90
2019-01-28T16:19:52.795Z,1.90
2019-01-28T16:22:19.129Z,2.00
2019-01-28T16:24:45.282Z,2.00
2019-01-28T16:27:11.529Z,2.00
2019-01-28T16:29:37.972Z,2.00
2019-01-28T16:32:04.267Z,2.10
2019-01-28T16:34:31.083Z,2.10
2019-01-28T16:36:57.404Z,2.10
2019-01-28T16:39:23.621Z,2.20
2019-01-28T16:41:49.860Z,2.20
2019-01-28T16:44:16.266Z,2.10
2019-01-28T16:46:42.836Z,2.10
2019-01-28T16:49:09.322Z,2.00
2019-01-28T16:51:35.652Z,1.90
2019-01-28T16:54:01.795Z,1.90
2019-01-28T16:56:28.044Z,1.90
2019-01-28T16:58:54.151Z,2.00
2019-01-28T17:01:20.268Z,2.00
2019-01-28T17:03:46.392Z,2.00
2019-01-28T17:06:12.755Z,2.00
2019-01-28T17:08:38.852Z,2.00
2019-01-28T17:11:06.920Z,2.10
2019-01-28T17:13:33.001Z,2.00
2019-01-28T17:15:59.134Z,2.10
2019-01-28T17:18:25.270Z,2.00
2019-01-28T17:20:51.416Z,2.10
2019-01-28T17:23:17.557Z,2.00
2019-01-28T17:25:45.485Z,2.00
2019-01-28T17:28:12.044Z,2.00
2019-01-28T17:30:40.530Z,1.90
2019-01-28T17:33:06.730Z,1.80
2019-01-28T17:35:33.521Z,1.80
2019-01-28T17:37:59.795Z,1.80
2019-01-28T17:40:28.123Z,1.70
2019-01-28T17:42:54.466Z,1.70
2019-01-28T17:45:21.682Z,1.70
2019-01-28T17:47:48.030Z,1.70
2019-01-28T17:50:14.724Z,1.80
2019-01-28T17:52:40.904Z,1.90
2019-01-28T17:55:09.544Z,1.80
2019-01-28T17:57:35.824Z,1.80
2019-01-28T18:00:08.618Z,2.20
2019-01-28T18:02:34.828Z,2.00
2019-01-28T18:05:00.974Z,1.90
2019-01-28T18:07:27.124Z,1.80
2019-01-28T18:09:53.258Z,1.80
2019-01-28T18:12:19.490Z,1.80
2019-01-28T18:14:45.688Z,1.90
2019-01-28T18:17:11.835Z,1.90
2019-01-28T18:19:38.026Z,1.90
2019-01-28T18:22:04.137Z,1.80
2019-01-28T18:24:30.223Z,1.80
2019-01-28T18:26:56.342Z,1.90
2019-01-28T18:29:23.383Z,1.80
2019-01-28T18:31:49.500Z,1.90
2019-01-28T18:34:15.595Z,1.90
2019-01-28T18:36:41.680Z,1.90
2019-01-28T18:39:09.460Z,2.00
2019-01-28T18:41:35.985Z,2.00
2019-01-28T18:44:02.554Z,2.10
2019-01-28T18:46:28.779Z,2.20
2019-01-28T18:48:54.909Z,2.10
2019-01-28T18:51:21.146Z,1.90
2019-01-28T18:53:47.742Z,1.90
2019-01-28T18:56:13.956Z,2.00
2019-01-28T18:58:40.068Z,2.00
2019-01-28T19:01:06.527Z,1.90
2019-01-28T19:03:33.021Z,1.90
2019-01-28T19:06:01.323Z,1.90
2019-01-28T19:08:32.470Z,1.90
2019-01-28T19:11:06.243Z,2.00
2019-01-28T19:13:43.096Z,2.00
2019-01-28T19:16:11.212Z,1.90
2019-01-28T19:18:56.336Z,2.10
2019-01-28T19:21:24.740Z,2.00
2019-01-28T19:23:51.204Z,2.30
2019-01-28T19:26:17.716Z,2.10
2019-01-28T19:28:43.941Z,2.10
2019-01-28T19:31:10.169Z,2.10
2019-01-28T19:33:36.490Z,2.10
2019-01-28T19:36:03.458Z,2.10
2019-01-28T19:38:29.681Z,1.90
2019-01-28T19:40:55.946Z,2.00
2019-01-28T19:43:22.023Z,2.00
2019-01-28T19:45:48.209Z,2.00
2019-01-28T19:48:14.554Z,2.10
2019-01-28T19:50:40.663Z,2.10
2019-01-28T19:53:06.903Z,2.30
2019-01-28T19:55:33.096Z,2.30
2019-01-28T19:57:59.335Z,2.20
2019-01-28T20:00:25.648Z,2.10
2019-01-28T20:02:52.780Z,2.10
2019-01-28T20:05:18.985Z,2.10
2019-01-28T20:07:45.329Z,2.00
2019-01-28T20:10:13.139Z,2.00
2019-01-28T20:12:39.446Z,2.10
2019-01-28T20:15:14.928Z,2.10
2019-01-28T20:17:41.235Z,2.00
2019-01-28T20:20:11.295Z,2.10
2019-01-28T20:22:37.554Z,2.00
2019-01-28T20:25:07.220Z,2.10
2019-01-28T20:27:33.467Z,2.00
2019-01-28T20:29:59.664Z,2.10
2019-01-28T20:32:25.763Z,2.10
2019-01-28T20:34:51.908Z,2.00
2019-01-28T20:37:19.738Z,2.00
2019-01-28T20:39:46.697Z,1.90
2019-01-28T20:42:13.051Z,1.90
2019-01-28T20:44:39.394Z,2.00
2019-01-28T20:47:05.751Z,2.10
2019-01-28T20:49:32.028Z,2.00
2019-01-28T20:51:58.376Z,1.90
2019-01-28T20:54:24.488Z,2.00
2019-01-28T20:56:50.748Z,2.10
2019-01-28T20:59:16.995Z,2.00
2019-01-28T21:01:43.233Z,2.00
2019-01-28T21:04:09.510Z,2.00
2019-01-28T21:06:35.662Z,1.90
2019-01-28T21:09:03.804Z,2.00
2019-01-28T21:11:30.014Z,2.00
2019-01-28T21:13:56.219Z,2.00
2019-01-28T21:16:22.538Z,1.90
2019-01-28T21:18:48.684Z,1.90
2019-01-28T21:21:14.923Z,2.00
2019-01-28T21:23:41.057Z,1.90
2019-01-28T21:26:07.422Z,2.00
2019-01-28T21:28:33.843Z,2.10
2019-01-28T21:31:00.077Z,2.00
2019-01-28T21:33:26.288Z,2.00
2019-01-28T21:35:57.424Z,2.00
2019-01-28T21:38:28.231Z,2.10
2019-01-28T21:40:54.536Z,2.00
2019-01-28T21:43:20.666Z,1.90
2019-01-28T21:45:47.090Z,2.00
2019-01-28T21:48:13.196Z,2.00
2019-01-28T21:50:39.414Z,2.10
2019-01-28T21:53:05.611Z,2.10
2019-01-28T21:55:31.827Z,2.10
2019-01-28T21:57:58.157Z,2.10
2019-01-28T22:00:25.098Z,2.10
2019-01-28T22:02:51.388Z,1.90
2019-01-28T22:05:17.741Z,1.90
2019-01-28T22:07:44.363Z,2.00
2019-01-28T22:10:13.335Z,2.10
2019-01-28T22:12:39.529Z,2.10
2019-01-28T22:15:12.016Z,2.00
2019-01-28T22:17:38.100Z,2.00
2019-01-28T22:20:07.207Z,2.10
2019-01-28T22:22:33.719Z,2.10
2019-01-28T22:24:59.861Z,2.10
2019-01-28T22:27:26.032Z,2.00
2019-01-28T22:29:52.183Z,2.00
2019-01-28T22:32:18.308Z,2.00
2019-01-28T22:34:47.898Z,2.00
2019-01-28T22:37:12.420Z,2.00
2019-01-28T22:39:38.517Z,2.00
2019-01-28T22:42:04.855Z,1.90
2019-01-28T22:44:31.033Z,1.80
2019-01-28T22:46:57.282Z,1.90
2019-01-28T22:49:23.403Z,1.90
2019-01-28T22:51:49.526Z,1.90
2019-01-28T22:54:15.678Z,1.90
2019-01-28T22:56:41.854Z,1.80
2019-01-28T22:59:08.006Z,1.90
2019-01-28T23:01:35.544Z,1.90
2019-01-28T23:04:01.640Z,2.00
2019-01-28T23:06:27.756Z,2.00
2019-01-28T23:08:53.870Z,1.90
2019-01-28T23:11:19.956Z,1.90
2019-01-28T23:13:46.027Z,1.90
2019-01-28T23:16:12.331Z,1.90
2019-01-28T23:18:38.471Z,1.90
2019-01-28T23:21:04.779Z,1.90
2019-01-28T23:23:30.860Z,1.90
2019-01-28T23:25:57.072Z,1.70
2019-01-28T23:28:23.284Z,1.70
2019-01-28T23:30:49.573Z,1.80
2019-01-28T23:33:15.887Z,1.70
2019-01-28T23:35:42.151Z,1.70
2019-01-28T23:38:08.316Z,1.70
2019-01-28T23:40:34.431Z,1.70
2019-01-28T23:43:01.489Z,1.70
2019-01-28T23:45:27.576Z,1.70
2019-01-28T23:47:53.823Z,1.70
2019-01-28T23:50:20.126Z,1.70
2019-01-28T23:52:46.256Z,1.70
2019-01-28T23:55:12.548Z,1.70
2019-01-28T23:57:38.639Z,1.80
